createdAt,value
2018-08-30T00:02:46.805Z,85.50
2018-08-30T00:05:58.244Z,86.50
2018-08-30T00:09:09.522Z,85.90
2018-08-30T00:12:21.492Z,86.00
2018-08-30T00:15:33.317Z,87.30
2018-08-30T00:18:44.541Z,87.20
2018-08-30T00:21:56.474Z,87.80
2018-08-30T00:25:08.053Z,87.60
2018-08-30T00:28:19.378Z,88.30
2018-08-30T00:31:30.703Z,88.30
2018-08-30T00:34:41.871Z,88.80
2018-08-30T00:37:53.006Z,89.70
2018-08-30T00:41:04.947Z,90.30
2018-08-30T00:44:16.335Z,91.30
2018-08-30T00:47:27.882Z,91.50
2018-08-30T00:50:39.773Z,92.00
2018-08-30T00:53:51.102Z,92.20
2018-08-30T00:57:02.239Z,92.50
2018-08-30T01:00:13.280Z,93.50
2018-08-30T01:03:24.590Z,94.50
2018-08-30T01:06:36.580Z,95.30
2018-08-30T01:09:48.480Z,95.60
2018-08-30T01:12:59.662Z,95.30
2018-08-30T01:16:10.977Z,95.00
2018-08-30T01:19:22.662Z,95.20
2018-08-30T01:22:34.544Z,95.90
2018-08-30T01:25:46.442Z,97.10
2018-08-30T01:28:57.888Z,96.90
2018-08-30T01:32:09.809Z,98.40
2018-08-30T01:35:21.673Z,97.90
2018-08-30T01:38:33.135Z,99.10
2018-08-30T01:41:44.789Z,99.80
2018-08-30T01:44:56.218Z,99.90
2018-08-30T01:48:08.360Z,99.90
2018-08-30T01:51:19.962Z,99.90
2018-08-30T01:54:31.262Z,99.90
2018-08-30T01:57:42.922Z,99.90
2018-08-30T02:00:54.001Z,99.90
2018-08-30T02:04:06.684Z,99.90
2018-08-30T02:07:18.207Z,99.90
2018-08-30T02:10:36.680Z,99.90
2018-08-30T02:13:48.398Z,99.90
2018-08-30T02:16:59.608Z,99.90
2018-08-30T02:20:11.423Z,99.90
2018-08-30T02:23:23.192Z,99.90
2018-08-30T02:26:35.237Z,99.90
2018-08-30T02:29:47.074Z,99.90
2018-08-30T02:32:58.235Z,99.90
2018-08-30T02:36:09.456Z,99.90
2018-08-30T02:39:20.698Z,99.90
2018-08-30T02:42:31.884Z,99.90
2018-08-30T02:45:43.469Z,99.90
2018-08-30T02:48:55.723Z,99.90
2018-08-30T02:52:07.674Z,99.90
2018-08-30T02:55:19.584Z,99.90
2018-08-30T02:58:30.745Z,99.90
2018-08-30T03:01:42.704Z,99.90
2018-08-30T03:04:54.639Z,99.90
2018-08-30T03:08:05.702Z,99.90
2018-08-30T03:11:17.623Z,99.90
2018-08-30T03:14:29.857Z,99.90
2018-08-30T03:17:41.104Z,99.90
2018-08-30T03:20:52.344Z,99.90
2018-08-30T03:24:03.978Z,99.90
2018-08-30T03:27:15.459Z,99.90
2018-08-30T03:30:27.220Z,99.90
2018-08-30T03:33:39.102Z,99.90
2018-08-30T03:36:50.243Z,99.90
2018-08-30T03:40:02.093Z,99.90
2018-08-30T03:43:15.417Z,99.90
2018-08-30T03:46:28.314Z,99.90
2018-08-30T03:49:40.723Z,99.90
2018-08-30T03:52:51.725Z,99.90
2018-08-30T03:56:02.801Z,99.90
2018-08-30T03:59:13.830Z,99.90
2018-08-30T04:02:25.158Z,99.90
2018-08-30T04:05:36.207Z,99.90
2018-08-30T04:08:48.306Z,99.90
2018-08-30T04:12:00.286Z,99.90
2018-08-30T04:15:11.358Z,99.90
2018-08-30T04:18:22.751Z,99.90
2018-08-30T04:21:35.056Z,99.90
2018-08-30T04:24:46.444Z,99.90
2018-08-30T04:27:58.410Z,99.90
2018-08-30T04:31:10.416Z,99.90
2018-08-30T04:34:22.206Z,99.90
2018-08-30T04:37:33.518Z,99.90
2018-08-30T04:40:44.911Z,99.90
2018-08-30T04:43:56.108Z,99.90
2018-08-30T04:47:07.685Z,99.90
2018-08-30T04:50:19.462Z,99.90
2018-08-30T04:53:31.502Z,99.90
2018-08-30T04:56:43.499Z,99.90
2018-08-30T04:59:55.150Z,99.90
2018-08-30T05:03:07.083Z,99.90
2018-08-30T05:06:18.184Z,99.90
2018-08-30T05:09:29.753Z,99.90
2018-08-30T05:12:41.732Z,99.90
2018-08-30T05:15:53.306Z,99.90
2018-08-30T05:19:04.343Z,99.90
2018-08-30T05:22:16.347Z,99.90
2018-08-30T05:25:27.389Z,99.90
2018-08-30T05:28:39.327Z,99.90
2018-08-30T05:31:51.125Z,99.90
2018-08-30T05:35:02.477Z,99.90
2018-08-30T05:38:13.521Z,99.90
2018-08-30T05:41:24.503Z,99.90
2018-08-30T05:44:35.538Z,99.90
2018-08-30T05:47:46.565Z,99.90
2018-08-30T05:50:58.180Z,99.90
2018-08-30T05:54:10.063Z,99.90
2018-08-30T05:57:21.227Z,99.90
2018-08-30T06:00:33.218Z,99.90
2018-08-30T06:03:45.099Z,99.90
2018-08-30T06:06:56.225Z,99.90
2018-08-30T06:10:07.537Z,99.90
2018-08-30T06:13:19.532Z,99.90
2018-08-30T06:16:31.548Z,99.90
2018-08-30T06:19:43.469Z,99.90
2018-08-30T06:22:54.739Z,99.90
2018-08-30T06:26:06.281Z,99.90
2018-08-30T06:29:18.087Z,99.90
2018-08-30T06:32:30.241Z,99.90
2018-08-30T06:35:42.109Z,99.90
2018-08-30T06:38:53.559Z,99.90
2018-08-30T06:42:05.800Z,99.90
2018-08-30T06:45:17.314Z,99.90
2018-08-30T06:48:29.595Z,99.90
2018-08-30T06:51:41.232Z,99.90
2018-08-30T06:54:52.280Z,99.90
2018-08-30T06:58:03.362Z,99.90
2018-08-30T07:01:15.148Z,99.90
2018-08-30T07:04:26.205Z,99.90
2018-08-30T07:07:37.717Z,99.90
2018-08-30T07:10:49.379Z,99.90
2018-08-30T07:14:00.771Z,99.90
2018-08-30T07:17:12.676Z,99.90
2018-08-30T07:20:24.201Z,99.90
2018-08-30T07:23:36.067Z,99.90
2018-08-30T07:26:48.068Z,99.90
2018-08-30T07:29:59.497Z,99.90
2018-08-30T07:33:10.691Z,99.90
2018-08-30T07:36:22.066Z,99.90
2018-08-30T07:39:33.151Z,99.90
2018-08-30T07:42:44.224Z,99.90
2018-08-30T07:45:55.326Z,99.90
2018-08-30T07:49:07.669Z,99.90
2018-08-30T07:52:20.062Z,99.90
2018-08-30T07:55:31.185Z,99.90
2018-08-30T07:58:42.625Z,99.90
2018-08-30T08:01:53.678Z,99.90
2018-08-30T08:05:05.255Z,99.90
2018-08-30T08:08:16.582Z,99.90
2018-08-30T08:11:27.983Z,99.90
2018-08-30T08:14:39.923Z,99.90
2018-08-30T08:17:51.258Z,99.90
2018-08-30T08:21:02.471Z,99.90
2018-08-30T08:24:13.576Z,99.90
2018-08-30T08:27:24.669Z,99.90
2018-08-30T08:30:35.954Z,99.90
2018-08-30T08:33:47.962Z,99.90
2018-08-30T08:36:59.896Z,99.90
2018-08-30T08:40:11.399Z,99.90
2018-08-30T08:43:23.609Z,99.90
2018-08-30T08:46:35.256Z,99.90
2018-08-30T08:49:46.409Z,99.90
2018-08-30T08:52:57.621Z,99.90
2018-08-30T08:56:09.585Z,99.90
2018-08-30T08:59:21.435Z,99.90
2018-08-30T09:02:33.391Z,99.90
2018-08-30T09:05:44.576Z,99.90
2018-08-30T09:08:55.817Z,99.90
2018-08-30T09:12:07.714Z,99.90
2018-08-30T09:15:19.067Z,99.90
2018-08-30T09:18:30.529Z,99.90
2018-08-30T09:21:42.621Z,99.90
2018-08-30T09:24:53.712Z,99.90
2018-08-30T09:28:05.673Z,99.90
2018-08-30T09:31:17.574Z,99.90
2018-08-30T09:34:28.764Z,99.90
2018-08-30T09:37:40.609Z,99.90
2018-08-30T09:40:51.907Z,99.90
2018-08-30T09:44:03.106Z,99.90
2018-08-30T09:47:14.325Z,99.90
2018-08-30T09:50:26.365Z,99.90
2018-08-30T09:53:40.398Z,99.90
2018-08-30T09:56:51.583Z,99.90
2018-08-30T10:00:03.333Z,99.90
2018-08-30T10:03:14.790Z,99.90
2018-08-30T10:06:25.945Z,99.90
2018-08-30T10:09:37.811Z,99.90
2018-08-30T10:12:49.052Z,99.90
2018-08-30T10:16:01.217Z,99.90
2018-08-30T10:19:13.855Z,99.90
2018-08-30T10:22:25.237Z,99.90
2018-08-30T10:25:36.331Z,99.90
2018-08-30T10:28:47.651Z,99.90
2018-08-30T10:31:59.247Z,99.90
2018-08-30T10:35:11.160Z,99.90
2018-08-30T10:38:22.589Z,99.90
2018-08-30T10:41:33.728Z,99.90
2018-08-30T10:44:44.932Z,99.90
2018-08-30T10:47:56.061Z,99.90
2018-08-30T10:51:07.193Z,99.90
2018-08-30T10:54:18.825Z,99.90
2018-08-30T10:57:29.873Z,99.90
2018-08-30T11:00:41.892Z,99.90
2018-08-30T11:03:52.966Z,99.90
2018-08-30T11:07:05.493Z,99.90
2018-08-30T11:10:17.200Z,99.90
2018-08-30T11:13:28.332Z,99.90
2018-08-30T11:16:40.424Z,99.90
2018-08-30T11:19:51.470Z,99.90
2018-08-30T11:23:02.613Z,99.90
2018-08-30T11:26:14.492Z,99.90
2018-08-30T11:29:26.268Z,99.90
2018-08-30T11:32:37.479Z,99.90
2018-08-30T11:35:49.771Z,99.90
2018-08-30T11:39:01.703Z,99.90
2018-08-30T11:42:12.735Z,99.90
2018-08-30T11:45:24.289Z,99.90
2018-08-30T11:48:36.158Z,99.90
2018-08-30T11:51:47.447Z,99.90
2018-08-30T11:54:59.499Z,99.90
2018-08-30T11:58:11.178Z,99.90
2018-08-30T12:01:22.360Z,99.90
2018-08-30T12:04:34.067Z,99.90
2018-08-30T12:07:46.167Z,99.90
2018-08-30T12:10:57.976Z,99.90
2018-08-30T12:14:09.989Z,99.90
2018-08-30T12:17:22.173Z,99.90
2018-08-30T12:20:34.339Z,99.90
2018-08-30T12:23:46.205Z,99.90
2018-08-30T12:26:57.354Z,99.90
2018-08-30T12:30:08.743Z,99.90
2018-08-30T12:33:20.173Z,99.90
2018-08-30T12:36:31.963Z,99.90
2018-08-30T12:39:44.061Z,99.90
2018-08-30T12:42:56.143Z,99.90
2018-08-30T12:46:07.419Z,99.90
2018-08-30T12:49:19.374Z,99.90
2018-08-30T12:52:31.521Z,99.90
2018-08-30T12:55:43.785Z,99.90
2018-08-30T12:59:01.222Z,99.90
2018-08-30T13:02:12.416Z,99.90
2018-08-30T13:05:24.172Z,99.90
2018-08-30T13:08:36.040Z,99.90
2018-08-30T13:11:48.112Z,99.90
2018-08-30T13:15:00.296Z,99.90
2018-08-30T13:18:12.060Z,99.90
2018-08-30T13:21:24.265Z,99.90
2018-08-30T13:24:36.700Z,99.90
2018-08-30T13:27:48.949Z,99.90
2018-08-30T13:31:00.903Z,99.90
2018-08-30T13:34:13.805Z,99.90
2018-08-30T13:37:25.066Z,99.90
2018-08-30T13:40:36.923Z,99.90
2018-08-30T13:43:48.896Z,99.90
2018-08-30T13:47:00.492Z,99.90
2018-08-30T13:50:12.478Z,99.90
2018-08-30T13:53:24.318Z,99.90
2018-08-30T13:56:36.748Z,99.90
2018-08-30T13:59:48.677Z,99.90
2018-08-30T14:03:00.495Z,99.90
2018-08-30T14:06:12.735Z,99.90
2018-08-30T14:09:24.321Z,99.90
2018-08-30T14:12:35.559Z,99.90
2018-08-30T14:15:46.764Z,99.90
2018-08-30T14:18:58.902Z,99.90
2018-08-30T14:22:10.387Z,99.90
2018-08-30T14:25:22.144Z,99.90
2018-08-30T14:28:33.158Z,99.90
2018-08-30T14:31:44.265Z,99.90
2018-08-30T14:34:55.588Z,99.90
2018-08-30T14:38:06.950Z,99.90
2018-08-30T14:41:18.196Z,99.90
2018-08-30T14:44:30.212Z,99.90
2018-08-30T14:47:42.245Z,99.90
2018-08-30T14:50:53.616Z,99.90
2018-08-30T14:54:05.860Z,99.90
2018-08-30T14:57:17.661Z,99.90
2018-08-30T15:00:29.395Z,99.90
2018-08-30T15:03:41.264Z,99.90
2018-08-30T15:06:52.325Z,99.90
2018-08-30T15:10:04.549Z,99.90
2018-08-30T15:13:16.439Z,99.90
2018-08-30T15:16:28.211Z,99.90
2018-08-30T15:19:39.546Z,99.90
2018-08-30T15:22:50.782Z,99.90
2018-08-30T15:26:02.553Z,99.90
2018-08-30T15:29:13.794Z,99.90
2018-08-30T15:32:25.781Z,99.90
2018-08-30T15:35:37.138Z,99.90
2018-08-30T15:38:48.453Z,99.90
2018-08-30T15:42:00.363Z,99.90
2018-08-30T15:45:11.683Z,99.90
2018-08-30T15:48:22.867Z,99.90
2018-08-30T15:51:34.614Z,99.90
2018-08-30T15:54:45.786Z,99.90
2018-08-30T15:57:57.216Z,99.90
2018-08-30T16:01:08.603Z,99.90
2018-08-30T16:04:19.751Z,99.90
2018-08-30T16:07:30.873Z,99.90
2018-08-30T16:10:42.185Z,99.90
2018-08-30T16:13:53.619Z,99.90
2018-08-30T16:17:07.099Z,99.90
2018-08-30T16:20:18.961Z,99.90
2018-08-30T16:23:35.452Z,99.90
2018-08-30T16:26:47.100Z,99.90
2018-08-30T16:29:58.903Z,99.90
2018-08-30T16:33:10.755Z,99.90
2018-08-30T16:36:21.892Z,99.90
2018-08-30T16:39:33.818Z,99.90
2018-08-30T16:42:44.802Z,99.90
2018-08-30T16:45:56.998Z,99.90
2018-08-30T16:49:14.653Z,99.90
2018-08-30T16:52:26.021Z,99.90
2018-08-30T16:55:38.015Z,99.90
2018-08-30T16:58:50.739Z,99.90
2018-08-30T17:02:01.961Z,99.90
2018-08-30T17:05:14.023Z,99.90
2018-08-30T17:08:25.108Z,99.90
2018-08-30T17:11:36.112Z,99.90
2018-08-30T17:14:47.346Z,99.90
2018-08-30T17:17:59.744Z,99.90
2018-08-30T17:21:11.624Z,99.90
2018-08-30T17:24:22.672Z,99.90
2018-08-30T17:27:34.468Z,99.90
2018-08-30T17:30:45.702Z,99.90
2018-08-30T17:33:57.031Z,99.90
2018-08-30T17:37:09.082Z,99.90
2018-08-30T17:40:20.763Z,99.90
2018-08-30T17:43:32.395Z,99.90
2018-08-30T17:46:43.818Z,99.90
2018-08-30T17:49:55.166Z,99.90
2018-08-30T17:53:06.353Z,99.90
2018-08-30T17:56:18.419Z,99.90
2018-08-30T17:59:30.001Z,99.90
2018-08-30T18:02:42.716Z,99.90
2018-08-30T18:05:54.051Z,99.90
2018-08-30T18:09:07.592Z,99.90
2018-08-30T18:12:18.888Z,99.90
2018-08-30T18:15:30.819Z,99.90
2018-08-30T18:18:41.991Z,99.90
2018-08-30T18:21:53.137Z,99.90
2018-08-30T18:25:04.739Z,99.90
2018-08-30T18:28:16.519Z,99.90
2018-08-30T18:31:27.789Z,99.90
2018-08-30T18:34:39.819Z,99.90
2018-08-30T18:37:51.025Z,99.90
2018-08-30T18:41:02.148Z,99.90
2018-08-30T18:44:13.961Z,99.90
2018-08-30T18:47:25.198Z,99.90
2018-08-30T18:50:36.404Z,99.90
2018-08-30T18:53:48.335Z,99.90
2018-08-30T18:57:00.170Z,99.90
2018-08-30T19:00:12.413Z,99.90
2018-08-30T19:03:24.467Z,99.90
2018-08-30T19:06:35.586Z,99.90
2018-08-30T19:09:46.650Z,99.90
2018-08-30T19:12:57.772Z,99.90
2018-08-30T19:16:15.005Z,99.90
2018-08-30T19:19:27.780Z,99.90
2018-08-30T19:22:39.068Z,99.90
2018-08-30T19:25:50.957Z,99.90
2018-08-30T19:29:02.293Z,99.90
2018-08-30T19:32:13.723Z,99.90
2018-08-30T19:35:30.324Z,99.90
2018-08-30T19:38:42.016Z,99.90
2018-08-30T19:41:53.350Z,99.90
2018-08-30T19:45:04.868Z,99.90
2018-08-30T19:48:15.874Z,99.90
2018-08-30T19:51:27.126Z,99.90
2018-08-30T19:54:38.955Z,99.90
2018-08-30T19:57:51.045Z,99.90
2018-08-30T20:01:03.266Z,99.90
2018-08-30T20:04:14.595Z,99.90
2018-08-30T20:07:25.957Z,99.90
2018-08-30T20:10:37.096Z,99.90
2018-08-30T20:13:48.184Z,99.90
2018-08-30T20:16:59.276Z,99.90
2018-08-30T20:20:10.787Z,99.90
2018-08-30T20:23:22.526Z,99.90
2018-08-30T20:26:33.611Z,99.90
2018-08-30T20:29:45.136Z,99.90
2018-08-30T20:32:56.171Z,99.90
2018-08-30T20:36:07.365Z,99.90
2018-08-30T20:39:19.257Z,99.90
2018-08-30T20:42:31.232Z,99.90
2018-08-30T20:45:42.293Z,99.90
2018-08-30T20:48:53.395Z,99.90
2018-08-30T20:52:04.622Z,99.90
2018-08-30T20:55:16.537Z,99.90
2018-08-30T20:58:28.455Z,99.90
2018-08-30T21:01:39.886Z,99.90
2018-08-30T21:04:51.525Z,99.90
2018-08-30T21:08:02.797Z,99.90
2018-08-30T21:11:14.668Z,99.90
2018-08-30T21:14:25.774Z,99.90
2018-08-30T21:17:36.996Z,99.90
2018-08-30T21:20:48.244Z,99.90
2018-08-30T21:23:59.952Z,99.90
2018-08-30T21:27:11.100Z,99.90
2018-08-30T21:30:22.354Z,99.90
2018-08-30T21:33:33.347Z,99.90
2018-08-30T21:36:44.895Z,99.90
2018-08-30T21:39:56.734Z,99.90
2018-08-30T21:43:08.811Z,99.90
2018-08-30T21:46:19.868Z,99.90
2018-08-30T21:49:31.841Z,99.90
2018-08-30T21:52:42.982Z,99.90
2018-08-30T21:55:55.013Z,99.90
2018-08-30T21:59:07.093Z,99.90
2018-08-30T22:02:18.481Z,99.90
2018-08-30T22:05:30.589Z,99.90
2018-08-30T22:08:41.629Z,99.90
2018-08-30T22:11:53.025Z,99.90
2018-08-30T22:15:05.230Z,99.90
2018-08-30T22:18:17.104Z,99.90
2018-08-30T22:21:28.875Z,99.90
2018-08-30T22:24:40.062Z,99.90
2018-08-30T22:27:51.242Z,99.90
2018-08-30T22:31:02.362Z,99.90
2018-08-30T22:34:13.315Z,99.90
2018-08-30T22:37:24.510Z,99.90
2018-08-30T22:40:36.262Z,99.90
2018-08-30T22:43:48.009Z,99.90
2018-08-30T22:46:59.765Z,99.90
2018-08-30T22:50:10.896Z,99.90
2018-08-30T22:53:22.352Z,99.90
2018-08-30T22:56:34.369Z,99.90
2018-08-30T22:59:45.585Z,99.90
2018-08-30T23:02:57.914Z,99.90
2018-08-30T23:06:09.667Z,99.90
2018-08-30T23:09:21.209Z,99.90
2018-08-30T23:12:33.039Z,99.90
2018-08-30T23:15:44.537Z,99.90
2018-08-30T23:18:55.928Z,99.90
2018-08-30T23:22:07.347Z,99.90
2018-08-30T23:25:19.303Z,99.90
2018-08-30T23:28:30.417Z,99.90
2018-08-30T23:31:41.917Z,99.90
2018-08-30T23:34:53.181Z,99.90
2018-08-30T23:38:04.469Z,99.90
2018-08-30T23:41:15.639Z,99.90
2018-08-30T23:44:27.884Z,99.90
2018-08-30T23:47:39.273Z,99.90
2018-08-30T23:50:50.919Z,99.90
2018-08-30T23:54:02.401Z,99.90
2018-08-30T23:57:13.584Z,99.90
